sensor_id;sensor_type;location;lat;lon;timestamp;pressure;altitude;pressure_sealevel;temperature;humidity
36664;BME280;53333;51.976;20.144;2023-02-01T00:01:31;98954.56;;;4.17;72.76
36664;BME280;53333;51.976;20.144;2023-02-01T00:04:05;98941.22;;;4.20;72.89
36664;BME280;53333;51.976;20.144;2023-02-01T00:06:38;98944.59;;;4.24;72.78
36664;BME280;53333;51.976;20.144;2023-02-01T00:09:12;98953.25;;;4.27;72.56
36664;BME280;53333;51.976;20.144;2023-02-01T00:11:45;98950.59;;;4.27;72.55
36664;BME280;53333;51.976;20.144;2023-02-01T00:14:18;98948.84;;;4.28;72.46
36664;BME280;53333;51.976;20.144;2023-02-01T00:16:51;98962.06;;;4.28;72.14
36664;BME280;53333;51.976;20.144;2023-02-01T00:19:26;98966.47;;;4.27;72.28
36664;BME280;53333;51.976;20.144;2023-02-01T00:21:59;98968.19;;;4.28;72.32
36664;BME280;53333;51.976;20.144;2023-02-01T00:24:32;98969.97;;;4.28;72.10
36664;BME280;53333;51.976;20.144;2023-02-01T00:27:05;98986.63;;;4.30;72.14
36664;BME280;53333;51.976;20.144;2023-02-01T00:29:38;98980.50;;;4.29;72.09
36664;BME280;53333;51.976;20.144;2023-02-01T00:32:12;98989.34;;;4.28;71.91
36664;BME280;53333;51.976;20.144;2023-02-01T00:34:46;98990.13;;;4.30;72.03
36664;BME280;53333;51.976;20.144;2023-02-01T00:37:20;98986.50;;;4.33;71.81
36664;BME280;53333;51.976;20.144;2023-02-01T00:39:53;98992.59;;;4.35;71.83
36664;BME280;53333;51.976;20.144;2023-02-01T00:42:27;98983.75;;;4.36;71.74
36664;BME280;53333;51.976;20.144;2023-02-01T00:45:00;99004.00;;;4.35;71.55
36664;BME280;53333;51.976;20.144;2023-02-01T00:47:33;99000.50;;;4.35;71.48
36664;BME280;53333;51.976;20.144;2023-02-01T00:50:09;98997.88;;;4.35;71.53
36664;BME280;53333;51.976;20.144;2023-02-01T00:52:42;99008.50;;;4.33;71.36
36664;BME280;53333;51.976;20.144;2023-02-01T00:55:15;99008.56;;;4.32;71.34
36664;BME280;53333;51.976;20.144;2023-02-01T00:57:48;98997.22;;;4.30;71.35
36664;BME280;53333;51.976;20.144;2023-02-01T01:00:21;99013.13;;;4.28;71.32
36664;BME280;53333;51.976;20.144;2023-02-01T01:02:54;99010.56;;;4.27;71.21
36664;BME280;53333;51.976;20.144;2023-02-01T01:05:29;99002.81;;;4.22;71.20
36664;BME280;53333;51.976;20.144;2023-02-01T01:08:02;98998.59;;;4.18;71.20
36664;BME280;53333;51.976;20.144;2023-02-01T01:10:35;98997.75;;;4.16;71.19
36664;BME280;53333;51.976;20.144;2023-02-01T01:13:08;98998.84;;;4.12;71.12
36664;BME280;53333;51.976;20.144;2023-02-01T01:15:42;99006.88;;;4.09;71.05
36664;BME280;53333;51.976;20.144;2023-02-01T01:18:15;99011.34;;;4.07;70.96
36664;BME280;53333;51.976;20.144;2023-02-01T01:20:49;99016.75;;;4.04;70.73
36664;BME280;53333;51.976;20.144;2023-02-01T01:23:22;99011.63;;;4.00;70.82
36664;BME280;53333;51.976;20.144;2023-02-01T01:25:55;99016.03;;;4.00;70.59
36664;BME280;53333;51.976;20.144;2023-02-01T01:28:28;99023.94;;;4.00;70.50
36664;BME280;53333;51.976;20.144;2023-02-01T01:31:02;99022.25;;;3.99;70.55
36664;BME280;53333;51.976;20.144;2023-02-01T01:33:35;99018.78;;;3.97;70.36
36664;BME280;53333;51.976;20.144;2023-02-01T01:36:10;99017.16;;;3.94;70.46
36664;BME280;53333;51.976;20.144;2023-02-01T01:38:44;99018.97;;;3.92;70.34
36664;BME280;53333;51.976;20.144;2023-02-01T01:41:21;99019.97;;;3.90;70.33
36664;BME280;53333;51.976;20.144;2023-02-01T01:43:57;99015.72;;;3.86;70.28
36664;BME280;53333;51.976;20.144;2023-02-01T01:46:32;99011.44;;;3.83;70.18
36664;BME280;53333;51.976;20.144;2023-02-01T01:49:09;99020.25;;;3.82;70.07
36664;BME280;53333;51.976;20.144;2023-02-01T01:51:49;99027.47;;;3.78;70.03
36664;BME280;53333;51.976;20.144;2023-02-01T01:54:27;99017.97;;;3.73;70.01
36664;BME280;53333;51.976;20.144;2023-02-01T01:57:04;99025.22;;;3.68;70.09
36664;BME280;53333;51.976;20.144;2023-02-01T01:59:40;99027.00;;;3.67;70.03
36664;BME280;53333;51.976;20.144;2023-02-01T02:02:16;99024.38;;;3.67;69.98
36664;BME280;53333;51.976;20.144;2023-02-01T02:04:50;99034.88;;;3.69;69.97
36664;BME280;53333;51.976;20.144;2023-02-01T02:07:27;99035.63;;;3.72;69.92
36664;BME280;53333;51.976;20.144;2023-02-01T02:10:02;99033.03;;;3.71;69.83
36664;BME280;53333;51.976;20.144;2023-02-01T02:12:38;99037.38;;;3.72;69.90
36664;BME280;53333;51.976;20.144;2023-02-01T02:15:14;99044.38;;;3.73;69.84
36664;BME280;53333;51.976;20.144;2023-02-01T02:17:55;99030.28;;;3.74;69.83
36664;BME280;53333;51.976;20.144;2023-02-01T02:20:44;99020.50;;;3.76;69.70
36664;BME280;53333;51.976;20.144;2023-02-01T02:26:46;99031.06;;;3.76;69.69
36664;BME280;53333;51.976;20.144;2023-02-01T02:29:41;99038.25;;;3.72;69.54
36664;BME280;53333;51.976;20.144;2023-02-01T02:32:48;99037.25;;;3.75;69.51
36664;BME280;53333;51.976;20.144;2023-02-01T02:35:32;99039.09;;;3.73;69.66
36664;BME280;53333;51.976;20.144;2023-02-01T02:38:16;99047.88;;;3.73;69.50
36664;BME280;53333;51.976;20.144;2023-02-01T02:40:56;99054.03;;;3.74;69.62
36664;BME280;53333;51.976;20.144;2023-02-01T02:43:40;99058.38;;;3.75;69.43
36664;BME280;53333;51.976;20.144;2023-02-01T02:46:37;99068.03;;;3.76;69.58
36664;BME280;53333;51.976;20.144;2023-02-01T02:49:34;99060.91;;;3.78;69.47
36664;BME280;53333;51.976;20.144;2023-02-01T02:52:14;99075.84;;;3.79;69.45
36664;BME280;53333;51.976;20.144;2023-02-01T02:55:08;99063.56;;;3.78;69.45
36664;BME280;53333;51.976;20.144;2023-02-01T02:57:44;99066.16;;;3.79;69.42
36664;BME280;53333;51.976;20.144;2023-02-01T03:00:35;99059.09;;;3.80;69.26
36664;BME280;53333;51.976;20.144;2023-02-01T03:03:27;99046.81;;;3.79;69.13
36664;BME280;53333;51.976;20.144;2023-02-01T03:06:17;99047.72;;;3.78;69.16
36664;BME280;53333;51.976;20.144;2023-02-01T03:08:56;99045.06;;;3.78;69.11
36664;BME280;53333;51.976;20.144;2023-02-01T03:11:32;99046.00;;;3.77;69.17
36664;BME280;53333;51.976;20.144;2023-02-01T03:14:21;99053.00;;;3.78;69.12
36664;BME280;53333;51.976;20.144;2023-02-01T03:17:00;99044.34;;;3.74;69.06
36664;BME280;53333;51.976;20.144;2023-02-01T03:19:39;99051.53;;;3.71;68.91
36664;BME280;53333;51.976;20.144;2023-02-01T03:22:16;99053.47;;;3.66;68.93
36664;BME280;53333;51.976;20.144;2023-02-01T03:24:54;99061.56;;;3.61;69.01
36664;BME280;53333;51.976;20.144;2023-02-01T03:27:32;99058.25;;;3.56;68.98
36664;BME280;53333;51.976;20.144;2023-02-01T03:30:11;99071.47;;;3.56;68.95
36664;BME280;53333;51.976;20.144;2023-02-01T03:32:51;99069.72;;;3.55;68.95
36664;BME280;53333;51.976;20.144;2023-02-01T03:35:40;99067.03;;;3.56;68.79
36664;BME280;53333;51.976;20.144;2023-02-01T03:38:20;99059.84;;;3.60;68.82
36664;BME280;53333;51.976;20.144;2023-02-01T03:41:02;99067.59;;;3.64;68.74
36664;BME280;53333;51.976;20.144;2023-02-01T03:43:43;99081.47;;;3.70;68.71
36664;BME280;53333;51.976;20.144;2023-02-01T03:46:25;99077.81;;;3.74;68.63
36664;BME280;53333;51.976;20.144;2023-02-01T03:49:06;99075.97;;;3.76;68.39
36664;BME280;53333;51.976;20.144;2023-02-01T03:51:42;99078.50;;;3.79;68.38
36664;BME280;53333;51.976;20.144;2023-02-01T03:54:16;99075.81;;;3.80;68.42
36664;BME280;53333;51.976;20.144;2023-02-01T03:56:54;99088.03;;;3.83;68.50
36664;BME280;53333;51.976;20.144;2023-02-01T03:59:29;99082.69;;;3.85;68.32
36664;BME280;53333;51.976;20.144;2023-02-01T04:02:02;99088.84;;;3.85;68.22
36664;BME280;53333;51.976;20.144;2023-02-01T04:04:35;99089.69;;;3.86;68.17
36664;BME280;53333;51.976;20.144;2023-02-01T04:07:09;99083.56;;;3.85;68.21
36664;BME280;53333;51.976;20.144;2023-02-01T04:09:42;99093.38;;;3.81;68.34
36664;BME280;53333;51.976;20.144;2023-02-01T04:12:16;99104.13;;;3.77;68.57
36664;BME280;53333;51.976;20.144;2023-02-01T04:14:50;99089.28;;;3.73;68.65
36664;BME280;53333;51.976;20.144;2023-02-01T04:17:23;99092.84;;;3.72;68.52
36664;BME280;53333;51.976;20.144;2023-02-01T04:19:56;99090.34;;;3.69;68.61
36664;BME280;53333;51.976;20.144;2023-02-01T04:22:29;99091.31;;;3.66;68.57
36664;BME280;53333;51.976;20.144;2023-02-01T04:25:03;99094.91;;;3.63;68.76
36664;BME280;53333;51.976;20.144;2023-02-01T04:27:38;99084.34;;;3.63;68.66
36664;BME280;53333;51.976;20.144;2023-02-01T04:30:11;99096.59;;;3.66;68.73
36664;BME280;53333;51.976;20.144;2023-02-01T04:32:44;99092.16;;;3.67;68.62
36664;BME280;53333;51.976;20.144;2023-02-01T04:35:18;99101.75;;;3.69;68.49
36664;BME280;53333;51.976;20.144;2023-02-01T04:37:51;99100.75;;;3.72;68.46
36664;BME280;53333;51.976;20.144;2023-02-01T04:40:24;99099.84;;;3.73;68.47
36664;BME280;53333;51.976;20.144;2023-02-01T04:43:00;99099.81;;;3.74;68.54
36664;BME280;53333;51.976;20.144;2023-02-01T04:45:33;99100.66;;;3.75;68.33
36664;BME280;53333;51.976;20.144;2023-02-01T04:48:06;99091.81;;;3.76;68.33
36664;BME280;53333;51.976;20.144;2023-02-01T04:50:39;99104.97;;;3.77;68.44
36664;BME280;53333;51.976;20.144;2023-02-01T04:53:12;99105.81;;;3.78;68.27
36664;BME280;53333;51.976;20.144;2023-02-01T04:55:48;99093.56;;;3.77;68.45
36664;BME280;53333;51.976;20.144;2023-02-01T04:58:22;99109.34;;;3.78;68.43
36664;BME280;53333;51.976;20.144;2023-02-01T05:00:55;99099.56;;;3.80;68.27
36664;BME280;53333;51.976;20.144;2023-02-01T05:03:28;99105.72;;;3.81;68.37
36664;BME280;53333;51.976;20.144;2023-02-01T05:06:01;99101.25;;;3.83;68.24
36664;BME280;53333;51.976;20.144;2023-02-01T05:08:35;99096.41;;;3.94;68.01
36664;BME280;53333;51.976;20.144;2023-02-01T05:11:09;99097.56;;;3.87;67.94
36664;BME280;53333;51.976;20.144;2023-02-01T05:14:03;99102.78;;;3.89;67.90
36664;BME280;53333;51.976;20.144;2023-02-01T05:16:35;99094.91;;;3.87;67.96
36664;BME280;53333;51.976;20.144;2023-02-01T05:19:08;99095.84;;;3.86;68.11
36664;BME280;53333;51.976;20.144;2023-02-01T05:21:41;99098.41;;;3.88;67.94
36664;BME280;53333;51.976;20.144;2023-02-01T05:24:14;99086.06;;;3.88;67.86
36664;BME280;53333;51.976;20.144;2023-02-01T05:26:51;99086.06;;;3.88;67.87
36664;BME280;53333;51.976;20.144;2023-02-01T05:29:26;99084.22;;;3.90;67.90
36664;BME280;53333;51.976;20.144;2023-02-01T05:31:59;99091.31;;;3.90;67.69
36664;BME280;53333;51.976;20.144;2023-02-01T05:34:52;99086.88;;;3.90;67.80
36664;BME280;53333;51.976;20.144;2023-02-01T05:37:25;99082.50;;;3.89;67.68
36664;BME280;53333;51.976;20.144;2023-02-01T05:39:58;99078.16;;;3.88;67.64
36664;BME280;53333;51.976;20.144;2023-02-01T05:42:33;99088.72;;;3.88;67.73
36664;BME280;53333;51.976;20.144;2023-02-01T05:45:09;99089.69;;;3.86;67.78
36664;BME280;53333;51.976;20.144;2023-02-01T05:47:42;99081.75;;;3.86;67.66
36664;BME280;53333;51.976;20.144;2023-02-01T05:50:15;99084.47;;;3.84;67.61
36664;BME280;53333;51.976;20.144;2023-02-01T05:52:48;99095.16;;;3.81;67.65
36664;BME280;53333;51.976;20.144;2023-02-01T05:55:21;99084.69;;;3.78;67.52
36664;BME280;53333;51.976;20.144;2023-02-01T05:57:54;99094.47;;;3.76;67.55
36664;BME280;53333;51.976;20.144;2023-02-01T06:00:29;99099.75;;;3.76;67.65
36664;BME280;53333;51.976;20.144;2023-02-01T06:03:02;99091.03;;;3.74;67.71
36664;BME280;53333;51.976;20.144;2023-02-01T06:05:35;99092.66;;;3.76;67.62
36664;BME280;53333;51.976;20.144;2023-02-01T06:08:08;99084.81;;;3.75;67.75
36664;BME280;53333;51.976;20.144;2023-02-01T06:10:41;99092.66;;;3.76;67.65
36664;BME280;53333;51.976;20.144;2023-02-01T06:13:14;99079.47;;;3.76;67.70
36664;BME280;53333;51.976;20.144;2023-02-01T06:15:49;99085.63;;;3.77;67.69
36664;BME280;53333;51.976;20.144;2023-02-01T06:18:22;99089.13;;;3.77;67.61
36664;BME280;53333;51.976;20.144;2023-02-01T06:20:56;99091.75;;;3.77;67.65
36664;BME280;53333;51.976;20.144;2023-02-01T06:23:31;99068.84;;;3.78;67.58
36664;BME280;53333;51.976;20.144;2023-02-01T06:26:06;99078.56;;;3.77;67.40
36664;BME280;53333;51.976;20.144;2023-02-01T06:28:40;99078.72;;;3.73;67.47
36664;BME280;53333;51.976;20.144;2023-02-01T06:31:14;99084.91;;;3.72;67.42
36664;BME280;53333;51.976;20.144;2023-02-01T06:33:47;99089.34;;;3.71;67.52
36664;BME280;53333;51.976;20.144;2023-02-01T06:36:21;99103.28;;;3.75;67.35
36664;BME280;53333;51.976;20.144;2023-02-01T06:38:55;99102.34;;;3.77;67.40
36664;BME280;53333;51.976;20.144;2023-02-01T06:41:30;99090.81;;;3.80;67.40
36664;BME280;53333;51.976;20.144;2023-02-01T06:44:06;99098.56;;;3.85;67.32
36664;BME280;53333;51.976;20.144;2023-02-01T06:46:41;99082.50;;;3.89;67.15
36664;BME280;53333;51.976;20.144;2023-02-01T06:49:14;99078.88;;;3.92;67.08
36664;BME280;53333;51.976;20.144;2023-02-01T06:51:47;99084.06;;;3.95;66.95
36664;BME280;53333;51.976;20.144;2023-02-01T06:54:19;99085.72;;;3.97;66.90
36664;BME280;53333;51.976;20.144;2023-02-01T06:56:53;99089.16;;;3.99;66.82
36664;BME280;53333;51.976;20.144;2023-02-01T06:59:26;99090.03;;;4.00;66.74
36664;BME280;53333;51.976;20.144;2023-02-01T07:02:00;99085.56;;;4.02;66.67
36664;BME280;53333;51.976;20.144;2023-02-01T07:04:33;99073.97;;;4.05;66.77
36664;BME280;53333;51.976;20.144;2023-02-01T07:07:06;99065.88;;;4.09;66.51
36664;BME280;53333;51.976;20.144;2023-02-01T07:09:39;99070.19;;;4.12;66.36
36664;BME280;53333;51.976;20.144;2023-02-01T07:12:12;99072.66;;;4.16;66.29
36664;BME280;53333;51.976;20.144;2023-02-01T07:14:45;99071.66;;;4.19;66.28
36664;BME280;53333;51.976;20.144;2023-02-01T07:17:22;99070.75;;;4.20;66.25
36664;BME280;53333;51.976;20.144;2023-02-01T07:19:56;99086.53;;;4.22;66.18
36664;BME280;53333;51.976;20.144;2023-02-01T07:22:30;99080.19;;;4.26;65.92
36664;BME280;53333;51.976;20.144;2023-02-01T07:25:04;99081.88;;;4.28;65.80
36664;BME280;53333;51.976;20.144;2023-02-01T07:27:37;99082.25;;;4.41;65.79
36664;BME280;53333;51.976;20.144;2023-02-01T07:30:11;99082.34;;;4.38;65.67
36664;BME280;53333;51.976;20.144;2023-02-01T07:32:45;99092.75;;;4.43;65.46
36664;BME280;53333;51.976;20.144;2023-02-01T07:35:18;99080.25;;;4.46;65.37
36664;BME280;53333;51.976;20.144;2023-02-01T07:37:51;99081.09;;;4.48;65.23
36664;BME280;53333;51.976;20.144;2023-02-01T07:40:24;99083.63;;;4.50;65.19
36664;BME280;53333;51.976;20.144;2023-02-01T07:43:00;99083.56;;;4.51;65.14
36664;BME280;53333;51.976;20.144;2023-02-01T07:45:33;99088.78;;;4.53;64.91
36664;BME280;53333;51.976;20.144;2023-02-01T07:48:09;99086.16;;;4.53;64.88
36664;BME280;53333;51.976;20.144;2023-02-01T07:50:42;99079.16;;;4.52;64.63
36664;BME280;53333;51.976;20.144;2023-02-01T07:53:15;99082.66;;;4.52;64.75
36664;BME280;53333;51.976;20.144;2023-02-01T07:55:48;99087.09;;;4.52;64.71
36664;BME280;53333;51.976;20.144;2023-02-01T07:58:21;99082.59;;;4.54;64.64
36664;BME280;53333;51.976;20.144;2023-02-01T08:00:54;99082.59;;;4.54;64.44
36664;BME280;53333;51.976;20.144;2023-02-01T08:03:47;99077.31;;;4.54;64.36
36664;BME280;53333;51.976;20.144;2023-02-01T08:06:21;99084.31;;;4.55;64.51
36664;BME280;53333;51.976;20.144;2023-02-01T08:08:54;99079.94;;;4.54;64.24
36664;BME280;53333;51.976;20.144;2023-02-01T08:11:28;99085.19;;;4.55;64.54
36664;BME280;53333;51.976;20.144;2023-02-01T08:14:01;99086.97;;;4.55;64.37
36664;BME280;53333;51.976;20.144;2023-02-01T08:16:34;99086.03;;;4.56;64.37
36664;BME280;53333;51.976;20.144;2023-02-01T08:19:12;99093.13;;;4.55;64.42
36664;BME280;53333;51.976;20.144;2023-02-01T08:21:45;99094.91;;;4.55;64.43
36664;BME280;53333;51.976;20.144;2023-02-01T08:24:20;99102.84;;;4.55;64.56
36664;BME280;53333;51.976;20.144;2023-02-01T08:26:54;99097.63;;;4.53;64.68
36664;BME280;53333;51.976;20.144;2023-02-01T08:29:27;99094.22;;;4.50;64.62
36664;BME280;53333;51.976;20.144;2023-02-01T08:32:00;99094.38;;;4.47;64.86
36664;BME280;53333;51.976;20.144;2023-02-01T08:34:35;99094.44;;;4.45;64.80
36664;BME280;53333;51.976;20.144;2023-02-01T08:37:08;99093.53;;;4.45;65.09
36664;BME280;53333;51.976;20.144;2023-02-01T08:39:41;99098.72;;;4.48;64.94
36664;BME280;53333;51.976;20.144;2023-02-01T08:42:18;99100.91;;;4.59;64.86
36664;BME280;53333;51.976;20.144;2023-02-01T08:45:09;99095.94;;;4.73;64.42
36664;BME280;53333;51.976;20.144;2023-02-01T08:47:43;99095.59;;;4.81;64.59
36664;BME280;53333;51.976;20.144;2023-02-01T08:50:18;99084.84;;;4.85;64.50
36664;BME280;53333;51.976;20.144;2023-02-01T08:52:52;99084.50;;;4.93;64.20
36664;BME280;53333;51.976;20.144;2023-02-01T08:55:25;99096.28;;;5.06;63.94
36664;BME280;53333;51.976;20.144;2023-02-01T08:57:59;99085.97;;;5.21;63.63
36664;BME280;53333;51.976;20.144;2023-02-01T09:00:32;99100.81;;;5.44;63.17
36664;BME280;53333;51.976;20.144;2023-02-01T09:03:05;99099.94;;;5.64;62.97
36664;BME280;53333;51.976;20.144;2023-02-01T09:05:40;99102.69;;;5.81;62.81
36664;BME280;53333;51.976;20.144;2023-02-01T09:08:20;99113.78;;;5.90;62.45
36664;BME280;53333;51.976;20.144;2023-02-01T09:10:53;99099.81;;;5.86;62.47
36664;BME280;53333;51.976;20.144;2023-02-01T09:13:26;99107.34;;;5.76;62.48
36664;BME280;53333;51.976;20.144;2023-02-01T09:15:59;99095.28;;;5.69;62.45
36664;BME280;53333;51.976;20.144;2023-02-01T09:18:32;99094.63;;;5.64;62.51
36664;BME280;53333;51.976;20.144;2023-02-01T09:21:07;99085.25;;;5.57;62.41
36664;BME280;53333;51.976;20.144;2023-02-01T09:23:41;99106.72;;;5.51;62.39
36664;BME280;53333;51.976;20.144;2023-02-01T09:26:14;99108.81;;;5.42;62.23
36664;BME280;53333;51.976;20.144;2023-02-01T09:28:50;99099.44;;;5.35;62.68
36664;BME280;53333;51.976;20.144;2023-02-01T09:31:23;99102.28;;;5.31;62.85
36664;BME280;53333;51.976;20.144;2023-02-01T09:33:56;99109.72;;;5.22;62.98
36664;BME280;53333;51.976;20.144;2023-02-01T09:36:31;99104.63;;;5.18;63.04
36664;BME280;53333;51.976;20.144;2023-02-01T09:39:07;99108.31;;;5.14;63.09
36664;BME280;53333;51.976;20.144;2023-02-01T09:41:48;99099.66;;;5.10;63.07
36664;BME280;53333;51.976;20.144;2023-02-01T09:44:40;99100.53;;;5.11;63.22
36664;BME280;53333;51.976;20.144;2023-02-01T09:47:22;99108.13;;;5.18;63.05
36664;BME280;53333;51.976;20.144;2023-02-01T09:49:58;99094.34;;;5.10;63.24
36664;BME280;53333;51.976;20.144;2023-02-01T09:52:40;99106.81;;;5.08;63.22
36664;BME280;53333;51.976;20.144;2023-02-01T09:55:19;99103.25;;;5.09;63.19
36664;BME280;53333;51.976;20.144;2023-02-01T09:57:57;99096.16;;;5.09;63.24
36664;BME280;53333;51.976;20.144;2023-02-01T10:00:35;99100.59;;;5.09;63.39
36664;BME280;53333;51.976;20.144;2023-02-01T10:03:11;99097.94;;;5.09;63.49
36664;BME280;53333;51.976;20.144;2023-02-01T10:05:57;99092.44;;;5.14;63.38
36664;BME280;53333;51.976;20.144;2023-02-01T10:08:45;99087.00;;;5.17;63.24
36664;BME280;53333;51.976;20.144;2023-02-01T10:11:29;99088.72;;;5.18;63.28
36664;BME280;53333;51.976;20.144;2023-02-01T10:14:39;99080.47;;;5.25;63.27
36664;BME280;53333;51.976;20.144;2023-02-01T10:17:26;99071.03;;;5.39;63.31
36664;BME280;53333;51.976;20.144;2023-02-01T10:20:07;99082.13;;;5.87;62.55
36664;BME280;53333;51.976;20.144;2023-02-01T10:22:46;99069.50;;;5.92;62.29
36664;BME280;53333;51.976;20.144;2023-02-01T10:25:53;99080.25;;;5.89;62.46
36664;BME280;53333;51.976;20.144;2023-02-01T10:28:27;99074.44;;;5.80;62.34
36664;BME280;53333;51.976;20.144;2023-02-01T10:31:01;99071.22;;;5.74;62.50
36664;BME280;53333;51.976;20.144;2023-02-01T10:33:37;99071.50;;;5.68;62.58
36664;BME280;53333;51.976;20.144;2023-02-01T10:36:15;99075.16;;;5.65;62.77
36664;BME280;53333;51.976;20.144;2023-02-01T10:38:50;99072.72;;;5.60;62.80
36664;BME280;53333;51.976;20.144;2023-02-01T10:41:30;99072.94;;;5.56;62.87
36664;BME280;53333;51.976;20.144;2023-02-01T10:44:05;99073.22;;;5.50;63.13
36664;BME280;53333;51.976;20.144;2023-02-01T10:46:40;99069.91;;;5.44;63.19
36664;BME280;53333;51.976;20.144;2023-02-01T10:49:18;99078.84;;;5.42;63.26
36664;BME280;53333;51.976;20.144;2023-02-01T10:51:54;99067.53;;;5.38;63.34
36664;BME280;53333;51.976;20.144;2023-02-01T10:54:35;99078.84;;;5.42;63.31
36664;BME280;53333;51.976;20.144;2023-02-01T10:57:20;99079.41;;;5.49;63.25
36664;BME280;53333;51.976;20.144;2023-02-01T10:59:54;99060.75;;;5.52;63.23
36664;BME280;53333;51.976;20.144;2023-02-01T11:02:30;99064.72;;;5.62;63.14
36664;BME280;53333;51.976;20.144;2023-02-01T11:05:07;99061.84;;;5.67;63.09
36664;BME280;53333;51.976;20.144;2023-02-01T11:07:47;99062.69;;;5.67;63.17
36664;BME280;53333;51.976;20.144;2023-02-01T11:10:38;99060.00;;;5.69;63.18
36664;BME280;53333;51.976;20.144;2023-02-01T11:13:16;99055.03;;;5.61;63.16
36664;BME280;53333;51.976;20.144;2023-02-01T11:15:55;99048.06;;;5.58;63.12
36664;BME280;53333;51.976;20.144;2023-02-01T11:18:30;99055.31;;;5.55;63.22
36664;BME280;53333;51.976;20.144;2023-02-01T11:21:05;99040.94;;;5.60;63.14
36664;BME280;53333;51.976;20.144;2023-02-01T11:23:41;99039.22;;;5.59;63.07
36664;BME280;53333;51.976;20.144;2023-02-01T11:26:21;99041.84;;;5.59;63.09
36664;BME280;53333;51.976;20.144;2023-02-01T11:29:00;99033.97;;;5.58;63.25
36664;BME280;53333;51.976;20.144;2023-02-01T11:31:34;99030.47;;;5.57;63.20
36664;BME280;53333;51.976;20.144;2023-02-01T11:34:12;99023.25;;;5.61;63.25
36664;BME280;53333;51.976;20.144;2023-02-01T11:36:48;99026.47;;;5.68;63.07
36664;BME280;53333;51.976;20.144;2023-02-01T11:39:25;99036.84;;;5.72;63.01
36664;BME280;53333;51.976;20.144;2023-02-01T11:42:01;99020.72;;;5.77;63.15
36664;BME280;53333;51.976;20.144;2023-02-01T11:44:39;99017.59;;;5.88;63.01
36664;BME280;53333;51.976;20.144;2023-02-01T11:47:19;99014.53;;;5.97;62.86
36664;BME280;53333;51.976;20.144;2023-02-01T11:49:54;99009.88;;;6.02;62.51
36664;BME280;53333;51.976;20.144;2023-02-01T11:52:48;99007.91;;;6.06;62.43
36664;BME280;53333;51.976;20.144;2023-02-01T11:55:42;99006.03;;;6.08;62.55
36664;BME280;53333;51.976;20.144;2023-02-01T11:58:36;98993.50;;;6.11;62.52
36664;BME280;53333;51.976;20.144;2023-02-01T12:01:23;98992.13;;;6.22;62.31
36664;BME280;53333;51.976;20.144;2023-02-01T12:07:30;98995.09;;;6.33;62.03
36664;BME280;53333;51.976;20.144;2023-02-01T12:10:22;98987.91;;;6.35;62.20
36664;BME280;53333;51.976;20.144;2023-02-01T12:13:07;98982.94;;;6.29;62.19
36664;BME280;53333;51.976;20.144;2023-02-01T12:15:56;98983.00;;;6.27;62.02
36664;BME280;53333;51.976;20.144;2023-02-01T12:18:52;98979.56;;;6.25;62.00
36664;BME280;53333;51.976;20.144;2023-02-01T12:21:43;98986.88;;;6.20;61.96
36664;BME280;53333;51.976;20.144;2023-02-01T12:27:46;98978.31;;;6.15;61.82
36664;BME280;53333;51.976;20.144;2023-02-01T12:30:40;98982.63;;;6.17;61.83
36664;BME280;53333;51.976;20.144;2023-02-01T12:33:23;98971.44;;;6.28;61.65
36664;BME280;53333;51.976;20.144;2023-02-01T12:36:10;98962.09;;;6.91;60.76
36664;BME280;53333;51.976;20.144;2023-02-01T12:38:51;98962.16;;;7.23;60.11
36664;BME280;53333;51.976;20.144;2023-02-01T12:41:46;98954.38;;;7.36;59.94
36664;BME280;53333;51.976;20.144;2023-02-01T12:44:37;98966.88;;;7.34;59.70
36664;BME280;53333;51.976;20.144;2023-02-01T12:47:17;98962.50;;;7.17;59.90
36664;BME280;53333;51.976;20.144;2023-02-01T12:49:57;98970.56;;;6.98;59.90
36664;BME280;53333;51.976;20.144;2023-02-01T12:52:38;98969.47;;;6.84;60.05
36664;BME280;53333;51.976;20.144;2023-02-01T12:55:19;98971.66;;;6.94;59.62
36664;BME280;53333;51.976;20.144;2023-02-01T12:57:58;98970.59;;;6.80;59.59
36664;BME280;53333;51.976;20.144;2023-02-01T13:00:37;98979.19;;;6.85;59.51
36664;BME280;53333;51.976;20.144;2023-02-01T13:03:19;98967.97;;;7.14;58.76
36664;BME280;53333;51.976;20.144;2023-02-01T13:05:58;98965.44;;;8.08;57.14
36664;BME280;53333;51.976;20.144;2023-02-01T13:08:41;98975.13;;;8.09;56.87
36664;BME280;53333;51.976;20.144;2023-02-01T13:11:19;98967.56;;;8.63;56.03
36664;BME280;53333;51.976;20.144;2023-02-01T13:14:00;98965.91;;;9.20;55.00
36664;BME280;53333;51.976;20.144;2023-02-01T13:16:38;98965.91;;;9.49;54.34
36664;BME280;53333;51.976;20.144;2023-02-01T13:19:16;98965.16;;;9.03;55.08
36664;BME280;53333;51.976;20.144;2023-02-01T13:21:54;98974.56;;;8.50;55.67
36664;BME280;53333;51.976;20.144;2023-02-01T13:24:33;98996.94;;;7.99;56.50
36664;BME280;53333;51.976;20.144;2023-02-01T13:27:11;98983.72;;;7.50;57.10
36664;BME280;53333;51.976;20.144;2023-02-01T13:29:51;98982.00;;;7.16;57.65
36664;BME280;53333;51.976;20.144;2023-02-01T13:33:02;98995.72;;;6.90;58.23
36664;BME280;53333;51.976;20.144;2023-02-01T13:36:23;99004.34;;;6.61;58.86
36664;BME280;53333;51.976;20.144;2023-02-01T13:39:38;99008.91;;;6.40;59.07
36664;BME280;53333;51.976;20.144;2023-02-01T13:42:18;99001.19;;;6.17;59.59
36664;BME280;53333;51.976;20.144;2023-02-01T13:44:56;99020.41;;;6.04;59.97
36664;BME280;53333;51.976;20.144;2023-02-01T13:47:32;99012.91;;;5.93;60.24
36664;BME280;53333;51.976;20.144;2023-02-01T13:50:13;99014.16;;;5.86;60.55
36664;BME280;53333;51.976;20.144;2023-02-01T13:52:54;99004.91;;;5.75;60.88
36664;BME280;53333;51.976;20.144;2023-02-01T13:55:32;99006.06;;;5.70;61.18
36664;BME280;53333;51.976;20.144;2023-02-01T13:58:14;99018.59;;;5.66;61.41
36664;BME280;53333;51.976;20.144;2023-02-01T14:00:49;99007.22;;;5.64;61.46
36664;BME280;53333;51.976;20.144;2023-02-01T14:03:42;99007.13;;;5.66;61.29
36664;BME280;53333;51.976;20.144;2023-02-01T14:06:32;99015.28;;;5.61;61.67